createdAt,value
2023-04-16T00:04:41.330Z,102747.06
2023-04-16T00:09:44.306Z,102759.53
2023-04-16T00:14:47.402Z,102764.75
2023-04-16T00:19:50.303Z,102740.09
2023-04-16T00:24:53.311Z,102743.81
2023-04-16T00:29:56.329Z,102763.34
2023-04-16T00:35:00.809Z,102776.72
2023-04-16T00:40:03.930Z,102755.81
2023-04-16T00:45:07.546Z,102751.16
2023-04-16T00:50:11.847Z,102761.66
2023-04-16T00:55:16.054Z,102755.00
2023-04-16T01:00:19.098Z,102773.94
2023-04-16T01:05:22.078Z,102760.31
2023-04-16T01:10:24.999Z,102760.19
2023-04-16T01:15:28.006Z,102782.97
2023-04-16T01:20:36.314Z,102762.72
2023-04-16T01:25:39.808Z,102762.91
2023-04-16T01:30:42.921Z,102768.03
2023-04-16T01:35:55.352Z,102798.03
2023-04-16T01:40:59.819Z,102796.13
2023-04-16T01:46:16.134Z,102787.47
2023-04-16T01:51:19.097Z,102803.47
2023-04-16T01:56:22.153Z,102787.41
2023-04-16T02:01:25.377Z,102813.75
2023-04-16T02:06:28.445Z,102819.78
2023-04-16T02:11:31.405Z,102792.56
2023-04-16T02:16:34.471Z,102802.09
2023-04-16T02:21:58.076Z,102828.63
2023-04-16T02:27:01.246Z,102821.56
2023-04-16T02:32:04.931Z,102835.19
2023-04-16T02:37:09.239Z,102841.41
2023-04-16T02:42:12.245Z,102837.91
2023-04-16T02:47:15.509Z,102849.47
2023-04-16T02:52:18.540Z,102848.97
2023-04-16T02:57:21.703Z,102850.25
2023-04-16T03:02:24.764Z,102816.50
2023-04-16T03:07:27.782Z,102846.28
2023-04-16T03:12:30.933Z,102859.34
2023-04-16T03:17:34.086Z,102855.44
2023-04-16T03:22:38.810Z,102841.63
2023-04-16T03:27:41.813Z,102849.06
2023-04-16T03:32:46.644Z,102864.56
2023-04-16T03:37:50.855Z,102864.63
2023-04-16T03:42:54.201Z,102863.63
2023-04-16T03:47:57.914Z,102846.91
2023-04-16T03:53:02.305Z,102862.78
2023-04-16T03:58:05.638Z,102865.44
2023-04-16T04:03:10.295Z,102851.66
2023-04-16T04:08:14.381Z,102872.19
2023-04-16T04:13:18.139Z,102873.31
2023-04-16T04:18:21.269Z,102867.06
2023-04-16T04:23:24.588Z,102851.94
2023-04-16T04:28:27.769Z,102843.59
2023-04-16T04:33:31.025Z,102856.47
2023-04-16T04:38:34.427Z,102868.69
2023-04-16T04:43:37.756Z,102867.41
2023-04-16T04:48:42.199Z,102869.81
2023-04-16T04:53:45.247Z,102830.81
2023-04-16T04:58:50.373Z,102853.28
2023-04-16T05:03:55.491Z,102862.25
2023-04-16T05:08:58.539Z,102858.19
2023-04-16T05:14:01.524Z,102860.03
2023-04-16T05:19:07.279Z,102877.66
2023-04-16T05:24:10.194Z,102889.72
2023-04-16T05:29:13.200Z,102882.44
2023-04-16T05:34:16.276Z,102889.88
2023-04-16T05:39:20.110Z,102882.28
2023-04-16T05:44:23.095Z,102893.94
2023-04-16T05:49:26.074Z,102890.81
2023-04-16T05:54:29.038Z,102891.25
2023-04-16T05:59:31.978Z,102899.28
2023-04-16T06:04:36.174Z,102897.84
2023-04-16T06:09:39.122Z,102905.47
2023-04-16T06:14:42.045Z,102892.34
2023-04-16T06:19:45.172Z,102916.06
2023-04-16T06:24:48.146Z,102890.41
2023-04-16T06:29:51.181Z,102906.19
2023-04-16T06:34:54.224Z,102901.75
2023-04-16T06:39:57.190Z,102902.16
2023-04-16T06:45:00.187Z,102898.84
2023-04-16T06:50:03.189Z,102881.41
2023-04-16T06:55:08.640Z,102899.16
2023-04-16T07:00:12.429Z,102883.47
2023-04-16T07:05:15.375Z,102868.56
2023-04-16T07:10:18.652Z,102888.47
2023-04-16T07:15:22.554Z,102887.41
2023-04-16T07:20:25.585Z,102887.72
2023-04-16T07:25:28.563Z,102871.22
2023-04-16T07:30:34.608Z,102869.38
2023-04-16T07:35:37.660Z,102869.19
2023-04-16T07:40:40.702Z,102861.72
2023-04-16T07:45:43.762Z,102880.63
2023-04-16T07:50:46.832Z,102836.59
2023-04-16T07:55:49.869Z,102843.69
2023-04-16T08:00:53.748Z,102846.38
2023-04-16T08:05:56.801Z,102838.56
2023-04-16T08:11:00.436Z,102843.31
2023-04-16T08:16:03.407Z,102825.97
2023-04-16T08:21:06.632Z,102846.44
2023-04-16T08:26:09.559Z,102849.00
2023-04-16T08:31:12.545Z,102839.31
2023-04-16T08:36:15.679Z,102820.91
2023-04-16T08:41:22.804Z,102822.19
2023-04-16T08:46:27.007Z,102815.91
2023-04-16T08:51:34.343Z,102820.53
2023-04-16T08:56:39.480Z,102821.59
2023-04-16T09:01:44.130Z,102819.81
2023-04-16T09:06:48.913Z,102808.66
2023-04-16T09:11:53.303Z,102812.09
2023-04-16T09:16:56.494Z,102801.81
2023-04-16T09:21:59.734Z,102818.09
2023-04-16T09:27:03.215Z,102809.91
2023-04-16T09:32:11.050Z,102783.72
2023-04-16T09:37:23.552Z,102777.84
2023-04-16T09:42:29.921Z,102790.66
2023-04-16T09:47:41.602Z,102790.66
2023-04-16T09:52:48.227Z,102767.00
2023-04-16T09:57:59.691Z,102778.59
2023-04-16T10:03:07.556Z,102774.88
2023-04-16T10:08:14.747Z,102765.28
2023-04-16T10:13:19.491Z,102751.56
2023-04-16T10:18:23.092Z,102769.78
2023-04-16T10:23:27.103Z,102773.97
2023-04-16T10:28:30.987Z,102772.53
2023-04-16T10:33:36.762Z,102750.25
2023-04-16T10:39:00.757Z,102756.41
2023-04-16T10:44:11.863Z,102768.91
2023-04-16T10:49:19.880Z,102761.88
2023-04-16T10:54:27.948Z,102755.03
2023-04-16T10:59:32.856Z,102730.13
2023-04-16T11:04:38.102Z,102724.94
2023-04-16T11:10:02.560Z,102717.91
2023-04-16T11:15:13.279Z,102709.06
2023-04-16T11:20:23.952Z,102692.44
2023-04-16T11:25:31.916Z,102707.19
2023-04-16T11:30:36.651Z,102713.50
2023-04-16T11:35:40.741Z,102699.31
2023-04-16T11:40:43.662Z,102690.53
2023-04-16T11:46:20.146Z,102690.31
2023-04-16T11:51:27.396Z,102682.56
2023-04-16T11:56:33.158Z,102650.16
2023-04-16T12:01:37.481Z,102672.00
2023-04-16T12:06:40.493Z,102645.50
2023-04-16T12:11:43.974Z,102635.75
2023-04-16T12:16:47.176Z,102638.53
2023-04-16T12:21:51.443Z,102628.75
2023-04-16T12:27:03.423Z,102626.81
2023-04-16T12:32:21.943Z,102643.72
2023-04-16T12:37:25.331Z,102648.00
2023-04-16T12:42:28.312Z,102617.34
2023-04-16T12:47:32.431Z,102628.75
2023-04-16T12:52:35.864Z,102627.81
2023-04-16T12:57:38.793Z,102606.53
2023-04-16T13:02:41.903Z,102612.72
2023-04-16T13:07:45.383Z,102607.50
2023-04-16T13:12:49.271Z,102589.94
2023-04-16T13:17:52.301Z,102610.91
2023-04-16T13:22:55.554Z,102600.41
2023-04-16T13:27:58.475Z,102587.41
2023-04-16T13:33:01.509Z,102595.31
2023-04-16T13:38:05.389Z,102583.88
2023-04-16T13:43:08.429Z,102576.81
2023-04-16T13:48:11.580Z,102590.94
2023-04-16T13:53:14.608Z,102598.09
2023-04-16T13:58:17.580Z,102585.88
2023-04-16T14:03:20.758Z,102570.97
2023-04-16T14:08:23.782Z,102594.72
2023-04-16T14:13:26.794Z,102585.97
2023-04-16T14:18:29.779Z,102576.22
2023-04-16T14:23:33.222Z,102564.84
2023-04-16T14:28:36.707Z,102585.09
2023-04-16T14:33:39.752Z,102573.78
2023-04-16T14:38:47.442Z,102579.13
2023-04-16T14:43:50.785Z,102563.44
2023-04-16T14:48:53.865Z,102567.06
2023-04-16T14:53:56.951Z,102586.50
2023-04-16T14:58:59.954Z,102576.94
2023-04-16T15:04:03.330Z,102567.38
2023-04-16T15:09:07.760Z,102559.53
2023-04-16T15:14:11.198Z,102576.31
2023-04-16T15:19:14.504Z,102578.13
2023-04-16T15:24:17.631Z,102587.00
2023-04-16T15:29:20.668Z,102587.13
2023-04-16T15:34:23.627Z,102585.41
2023-04-16T15:39:26.982Z,102595.09
2023-04-16T15:44:31.377Z,102577.63
2023-04-16T15:49:34.592Z,102592.59
2023-04-16T15:54:37.742Z,102569.84
2023-04-16T15:59:40.818Z,102593.63
2023-04-16T16:04:46.440Z,102581.38
2023-04-16T16:09:49.495Z,102604.25
2023-04-16T16:14:52.427Z,102593.75
2023-04-16T16:19:57.860Z,102602.53
2023-04-16T16:25:00.882Z,102590.25
2023-04-16T16:30:08.061Z,102609.53
2023-04-16T16:35:11.970Z,102616.53
2023-04-16T16:40:15.174Z,102605.06
2023-04-16T16:45:18.169Z,102597.94
2023-04-16T16:50:21.161Z,102633.84
2023-04-16T16:55:24.246Z,102619.66
2023-04-16T17:00:27.822Z,102617.78
2023-04-16T17:05:30.819Z,102633.63
2023-04-16T17:10:33.832Z,102627.41
2023-04-16T17:15:36.841Z,102647.59
2023-04-16T17:20:39.992Z,102629.16
2023-04-16T17:25:43.109Z,102649.31
2023-04-16T17:30:46.463Z,102653.72
2023-04-16T17:35:49.395Z,102660.56
2023-04-16T17:40:57.236Z,102636.72
2023-04-16T17:46:00.166Z,102636.69
2023-04-16T17:51:10.698Z,102653.41
2023-04-16T17:56:14.116Z,102630.44
2023-04-16T18:01:17.177Z,102648.84
2023-04-16T18:06:20.100Z,102656.59
2023-04-16T18:11:23.181Z,102652.09
2023-04-16T18:16:26.600Z,102651.91
2023-04-16T18:21:48.113Z,102650.78
2023-04-16T18:26:51.334Z,102629.47
2023-04-16T18:31:55.437Z,102649.66
2023-04-16T18:37:17.665Z,102624.09
2023-04-16T18:42:21.226Z,102631.88
2023-04-16T18:47:24.389Z,102612.34
2023-04-16T18:52:28.163Z,102638.69
2023-04-16T18:57:31.216Z,102614.75
2023-04-16T19:02:34.246Z,102645.34
2023-04-16T19:07:37.869Z,102644.38
2023-04-16T19:12:59.807Z,102621.31
2023-04-16T19:18:03.072Z,102633.41
2023-04-16T19:23:24.608Z,102643.09
2023-04-16T19:28:27.736Z,102650.06
2023-04-16T19:33:31.674Z,102649.03
2023-04-16T19:38:34.653Z,102654.13
2023-04-16T19:43:37.660Z,102657.50
2023-04-16T19:48:40.709Z,102645.13
2023-04-16T19:54:02.655Z,102669.47
2023-04-16T19:59:05.714Z,102646.50
2023-04-16T20:04:27.360Z,102648.22
2023-04-16T20:09:30.539Z,102646.50
2023-04-16T20:14:33.596Z,102652.44
2023-04-16T20:19:56.193Z,102663.72
2023-04-16T20:25:19.664Z,102663.66
2023-04-16T20:30:24.730Z,102645.00
2023-04-16T20:35:27.733Z,102658.13
2023-04-16T20:40:30.841Z,102641.41
2023-04-16T20:45:38.326Z,102642.22
2023-04-16T20:50:41.817Z,102645.66
2023-04-16T20:55:44.817Z,102644.47
2023-04-16T21:00:52.062Z,102634.78
2023-04-16T21:05:55.829Z,102658.44
2023-04-16T21:10:58.943Z,102627.66
2023-04-16T21:16:02.071Z,102633.84
2023-04-16T21:21:05.162Z,102630.13
2023-04-16T21:26:08.116Z,102628.31
2023-04-16T21:31:11.377Z,102647.59
2023-04-16T21:36:14.428Z,102623.69
2023-04-16T21:41:17.397Z,102608.69
2023-04-16T21:46:21.109Z,102640.34
2023-04-16T21:51:29.594Z,102633.06
2023-04-16T21:56:32.612Z,102635.47
2023-04-16T22:01:35.697Z,102617.72
2023-04-16T22:06:38.673Z,102608.84
2023-04-16T22:11:41.748Z,102643.94
2023-04-16T22:16:50.145Z,102613.81
2023-04-16T22:21:53.370Z,102610.28
2023-04-16T22:26:57.288Z,102629.63
2023-04-16T22:32:01.058Z,102630.44
2023-04-16T22:37:04.165Z,102634.53
2023-04-16T22:42:07.663Z,102638.13
2023-04-16T22:47:10.685Z,102638.03
2023-04-16T22:52:13.703Z,102618.47
2023-04-16T22:57:21.317Z,102623.72
2023-04-16T23:02:24.408Z,102629.03
2023-04-16T23:07:27.413Z,102637.75
2023-04-16T23:12:30.427Z,102633.34
2023-04-16T23:17:34.219Z,102623.31
2023-04-16T23:22:37.208Z,102626.06
2023-04-16T23:27:40.149Z,102615.44
2023-04-16T23:32:43.153Z,102634.75
2023-04-16T23:37:46.991Z,102633.94
2023-04-16T23:42:49.960Z,102637.69
2023-04-16T23:47:52.886Z,102635.03
2023-04-16T23:52:55.941Z,102636.59
2023-04-16T23:57:58.860Z,102612.91
